Terminal Aerodrome Forecast
Issued by NWS Raleigh/Durham, NC

Home | Current Version | Previous Version | Text Only | Print | Product List | Glossary On
Versions: 1 2 3 4 5 6 7 8 9 10 11 12 13 14 15 16 17 18 19
000
FTUS42 KRAH 010908 AAB
TAFRDU
TAF AMD
KRDU 010908Z 0109/0206 03007KT 4SM -SHRA BR SCT025 OVC050
      TEMPO 0109/0110 2SM SHRA BR SCT006 OVC025
     FM011000 03007KT 6SM -SHRA SCT020 OVC035
     FM011500 01012G20KT P6SM SCT015 OVC025
     FM012000 35018G28KT 6SM -SHRA SCT010 OVC025
     FM020300 33015G25KT P6SM BKN025=

USA.gov is the U.S. government's official web portal to all federal, state and local government web resources and services.